createdAt,value
2023-02-22T00:01:35.641Z,29.20
2023-02-22T00:04:05.026Z,28.38
2023-02-22T00:06:31.856Z,31.00
2023-02-22T00:08:59.101Z,29.08
2023-02-22T00:11:26.652Z,26.73
2023-02-22T00:13:57.025Z,26.88
2023-02-22T00:16:25.682Z,26.73
2023-02-22T00:21:19.752Z,26.70
2023-02-22T00:23:48.250Z,26.90
2023-02-22T00:26:20.257Z,26.02
2023-02-22T00:28:49.303Z,33.15
2023-02-22T00:31:16.632Z,33.78
2023-02-22T00:33:43.465Z,37.22
2023-02-22T00:36:11.708Z,36.17
2023-02-22T00:38:39.036Z,29.77
2023-02-22T00:41:05.766Z,34.45
2023-02-22T00:43:32.242Z,31.40
2023-02-22T00:45:59.106Z,32.13
2023-02-22T00:48:25.598Z,36.45
2023-02-22T00:50:55.308Z,30.92
2023-02-22T00:53:24.503Z,32.58
2023-02-22T00:55:51.542Z,30.13
2023-02-22T00:58:18.559Z,27.55
2023-02-22T01:00:45.758Z,25.63
2023-02-22T01:03:18.967Z,26.42
2023-02-22T01:05:45.999Z,25.65
2023-02-22T01:08:15.453Z,24.83
2023-02-22T01:10:42.855Z,24.88
2023-02-22T01:13:12.013Z,21.77
2023-02-22T01:15:41.694Z,21.77
2023-02-22T01:18:08.792Z,21.38
2023-02-22T01:20:36.133Z,22.33
2023-02-22T01:23:06.535Z,21.15
2023-02-22T01:25:34.012Z,23.88
2023-02-22T01:28:02.374Z,24.15
2023-02-22T01:30:33.264Z,22.02
2023-02-22T01:33:05.869Z,20.92
2023-02-22T01:35:35.328Z,19.77
2023-02-22T01:38:02.276Z,21.73
2023-02-22T01:40:34.741Z,24.48
2023-02-22T01:43:14.397Z,22.33
2023-02-22T01:45:42.904Z,24.98
2023-02-22T01:48:27.975Z,24.23
2023-02-22T01:51:00.857Z,22.05
2023-02-22T01:53:37.179Z,21.98
2023-02-22T01:56:04.702Z,23.52
2023-02-22T01:58:34.201Z,21.30
2023-02-22T02:01:01.204Z,22.05
2023-02-22T02:03:35.453Z,22.80
2023-02-22T02:06:05.445Z,23.70
2023-02-22T02:08:42.396Z,20.35
2023-02-22T02:11:09.901Z,20.25
2023-02-22T02:13:37.104Z,23.70
2023-02-22T02:16:03.920Z,20.02
2023-02-22T02:18:32.525Z,21.70
2023-02-22T02:24:11.520Z,17.60
2023-02-22T02:26:40.941Z,17.23
2023-02-22T02:29:57.815Z,16.27
2023-02-22T02:33:18.949Z,16.83
2023-02-22T02:35:54.558Z,16.73
2023-02-22T02:38:39.716Z,15.45
2023-02-22T02:41:15.016Z,15.55
2023-02-22T02:43:57.364Z,17.13
2023-02-22T02:46:35.070Z,14.88
2023-02-22T02:49:05.481Z,14.55
2023-02-22T02:51:36.713Z,14.13
2023-02-22T02:54:04.276Z,12.50
2023-02-22T02:56:31.272Z,14.27
2023-02-22T02:58:57.992Z,13.15
2023-02-22T03:01:46.880Z,11.40
2023-02-22T03:04:26.490Z,11.70
2023-02-22T03:06:53.104Z,11.80
2023-02-22T03:09:48.950Z,10.98
2023-02-22T03:12:19.339Z,11.80
2023-02-22T03:14:51.756Z,10.40
2023-02-22T03:17:26.350Z,11.27
2023-02-22T03:20:04.951Z,11.20
2023-02-22T03:22:44.120Z,13.13
2023-02-22T03:25:18.268Z,11.23
2023-02-22T03:27:53.279Z,12.90
2023-02-22T03:30:24.190Z,11.52
2023-02-22T03:32:54.547Z,11.15
2023-02-22T03:35:25.291Z,11.77
2023-02-22T03:37:56.980Z,11.57
2023-02-22T03:40:34.304Z,13.57
2023-02-22T03:43:08.432Z,11.38
2023-02-22T03:45:43.588Z,12.60
2023-02-22T03:48:29.456Z,11.32
2023-02-22T03:50:58.575Z,11.35
2023-02-22T03:53:25.617Z,10.38
2023-02-22T03:55:55.715Z,11.88
2023-02-22T03:58:24.957Z,11.13
2023-02-22T04:00:53.997Z,12.02
2023-02-22T04:03:21.739Z,11.32
2023-02-22T04:05:48.682Z,12.45
2023-02-22T04:08:16.325Z,10.57
2023-02-22T04:10:43.071Z,11.13
2023-02-22T04:13:10.647Z,11.05
2023-02-22T04:15:40.253Z,10.75
2023-02-22T04:18:09.125Z,11.35
2023-02-22T04:20:36.631Z,12.48
2023-02-22T04:23:09.080Z,12.68
2023-02-22T04:25:38.402Z,11.23
2023-02-22T04:28:12.311Z,12.55
2023-02-22T04:30:52.945Z,11.57
2023-02-22T04:33:20.014Z,13.70
2023-02-22T04:35:46.777Z,12.80
2023-02-22T04:38:13.893Z,12.98
2023-02-22T04:40:40.833Z,13.68
2023-02-22T04:43:08.158Z,14.50
2023-02-22T04:45:34.937Z,12.57
2023-02-22T04:48:03.398Z,15.93
2023-02-22T04:50:30.335Z,13.68
2023-02-22T04:52:57.356Z,14.68
2023-02-22T04:55:23.872Z,14.60
2023-02-22T04:57:50.395Z,17.73
2023-02-22T05:00:19.012Z,15.20
2023-02-22T05:02:45.904Z,16.90
2023-02-22T05:05:15.444Z,14.73
2023-02-22T05:07:42.364Z,15.63
2023-02-22T05:10:09.692Z,15.02
2023-02-22T05:12:36.995Z,16.38
2023-02-22T05:15:05.484Z,16.40
2023-02-22T05:17:31.932Z,18.17
2023-02-22T05:19:58.644Z,15.88
2023-02-22T05:22:25.115Z,16.10
2023-02-22T05:24:52.437Z,16.13
2023-02-22T05:27:19.646Z,16.17
2023-02-22T05:29:46.903Z,19.13
2023-02-22T05:32:13.723Z,17.60
2023-02-22T05:34:40.449Z,16.20
2023-02-22T05:37:07.228Z,17.13
2023-02-22T05:39:33.737Z,18.15
2023-02-22T05:42:00.284Z,16.83
2023-02-22T05:44:27.931Z,17.17
2023-02-22T05:46:54.424Z,16.42
2023-02-22T05:49:20.987Z,15.73
2023-02-22T05:51:47.388Z,16.00
2023-02-22T05:54:13.911Z,15.60
2023-02-22T05:56:40.427Z,16.45
2023-02-22T05:59:07.026Z,15.95
2023-02-22T06:01:33.801Z,16.30
2023-02-22T06:04:00.249Z,16.63
2023-02-22T06:06:26.663Z,16.52
2023-02-22T06:08:53.135Z,20.48
2023-02-22T06:11:20.046Z,15.63
2023-02-22T06:13:53.637Z,16.38
2023-02-22T06:16:22.250Z,16.50
2023-02-22T06:18:49.332Z,16.25
2023-02-22T06:21:16.458Z,15.25
2023-02-22T06:23:43.029Z,15.50
2023-02-22T06:26:09.683Z,15.18
2023-02-22T06:28:36.308Z,14.02
2023-02-22T06:31:03.227Z,15.05
2023-02-22T06:33:29.688Z,14.50
2023-02-22T06:35:56.116Z,17.13
2023-02-22T06:38:24.823Z,17.75
2023-02-22T06:40:51.932Z,16.20
2023-02-22T06:43:18.816Z,16.88
2023-02-22T06:45:45.348Z,16.58
2023-02-22T06:48:12.247Z,15.45
2023-02-22T06:50:38.796Z,17.88
2023-02-22T06:53:05.323Z,18.95
2023-02-22T06:55:34.227Z,19.33
2023-02-22T07:00:32.346Z,18.20
2023-02-22T07:03:00.350Z,18.63
2023-02-22T07:05:28.066Z,21.52
2023-02-22T07:08:01.252Z,18.45
2023-02-22T07:10:30.817Z,20.58
2023-02-22T07:12:57.968Z,18.52
2023-02-22T07:15:26.267Z,18.52
2023-02-22T07:17:52.919Z,16.95
2023-02-22T07:20:21.197Z,18.80
2023-02-22T07:22:48.276Z,17.00
2023-02-22T07:25:14.941Z,16.42
2023-02-22T07:27:45.277Z,17.40
2023-02-22T07:30:18.818Z,17.63
2023-02-22T07:32:46.947Z,20.35
2023-02-22T07:35:26.711Z,19.60
2023-02-22T07:37:55.972Z,22.30
2023-02-22T07:40:23.975Z,18.50
2023-02-22T07:43:06.837Z,18.52
2023-02-22T07:45:35.834Z,20.67
2023-02-22T07:48:04.185Z,19.30
2023-02-22T07:50:33.241Z,18.02
2023-02-22T07:53:02.885Z,19.63
2023-02-22T07:55:31.576Z,22.67
2023-02-22T07:58:01.197Z,17.65
2023-02-22T08:00:27.733Z,19.98
2023-02-22T08:02:54.537Z,17.98
2023-02-22T08:05:23.646Z,17.45
2023-02-22T08:07:50.479Z,19.05
2023-02-22T08:10:19.842Z,16.63
2023-02-22T08:12:46.504Z,18.73
2023-02-22T08:15:34.589Z,20.48
2023-02-22T08:18:02.751Z,15.77
2023-02-22T08:20:30.097Z,18.83
2023-02-22T08:22:58.533Z,17.92
2023-02-22T08:25:28.685Z,17.90
2023-02-22T08:28:08.955Z,22.38
2023-02-22T08:30:39.796Z,16.67
2023-02-22T08:33:07.175Z,16.10
2023-02-22T08:35:34.442Z,14.68
2023-02-22T08:38:04.822Z,18.40
2023-02-22T08:40:36.299Z,14.18
2023-02-22T08:43:04.549Z,18.70
2023-02-22T08:45:31.419Z,16.42
2023-02-22T08:47:58.761Z,15.68
2023-02-22T08:50:28.883Z,19.13
2023-02-22T08:52:59.494Z,15.32
2023-02-22T08:55:30.719Z,14.45
2023-02-22T08:57:57.479Z,17.60
2023-02-22T09:00:25.432Z,12.10
2023-02-22T09:02:53.009Z,13.35
2023-02-22T09:05:19.955Z,13.85
2023-02-22T09:07:46.671Z,14.27
2023-02-22T09:10:17.497Z,13.82
2023-02-22T09:12:44.078Z,14.90
2023-02-22T09:15:11.746Z,15.73
2023-02-22T09:17:38.551Z,14.32
2023-02-22T09:20:07.437Z,15.23
2023-02-22T09:22:33.988Z,15.68
2023-02-22T09:25:11.231Z,15.65
2023-02-22T09:27:43.528Z,16.30
2023-02-22T09:30:27.553Z,15.23
2023-02-22T09:32:58.054Z,16.90
2023-02-22T09:35:27.637Z,14.65
2023-02-22T09:37:59.197Z,15.13
2023-02-22T09:40:44.732Z,15.02
2023-02-22T09:43:24.633Z,14.82
2023-02-22T09:46:05.173Z,14.85
2023-02-22T09:48:36.381Z,14.88
2023-02-22T09:51:10.409Z,13.68
2023-02-22T09:53:44.009Z,16.35
2023-02-22T09:56:18.189Z,15.13
2023-02-22T09:58:48.131Z,12.57
2023-02-22T10:01:39.087Z,17.10
2023-02-22T10:04:12.609Z,16.17
2023-02-22T10:06:44.343Z,13.82
2023-02-22T10:09:12.227Z,14.45
2023-02-22T10:11:47.665Z,14.88
2023-02-22T10:14:20.114Z,11.45
2023-02-22T10:17:09.535Z,13.23
2023-02-22T10:19:51.066Z,14.57
2023-02-22T10:22:48.719Z,11.43
2023-02-22T10:25:22.631Z,15.02
2023-02-22T10:28:06.254Z,14.57
2023-02-22T10:30:54.722Z,12.48
2023-02-22T10:33:31.405Z,14.43
2023-02-22T10:35:57.949Z,13.10
2023-02-22T10:38:33.886Z,12.95
2023-02-22T10:41:21.166Z,15.50
2023-02-22T10:43:47.863Z,14.88
2023-02-22T10:46:21.200Z,12.50
2023-02-22T10:48:52.880Z,12.25
2023-02-22T10:51:19.338Z,12.95
2023-02-22T10:53:57.840Z,12.75
2023-02-22T10:56:26.585Z,13.52
2023-02-22T11:01:32.041Z,11.40
2023-02-22T11:04:21.671Z,12.88
2023-02-22T11:07:10.634Z,14.10
2023-02-22T11:09:50.427Z,12.45
2023-02-22T11:12:26.383Z,13.38
2023-02-22T11:14:53.373Z,13.10
2023-02-22T11:17:31.006Z,14.13
2023-02-22T11:19:59.140Z,18.10
2023-02-22T11:22:42.064Z,9.88
2023-02-22T11:25:09.345Z,11.48
2023-02-22T11:27:39.396Z,10.98
2023-02-22T11:30:24.500Z,13.20
2023-02-22T11:32:56.601Z,9.95
2023-02-22T11:35:28.952Z,12.15
2023-02-22T11:38:16.366Z,11.73
2023-02-22T11:40:44.668Z,13.40
2023-02-22T11:43:19.253Z,11.43
2023-02-22T11:46:02.008Z,10.15
2023-02-22T11:48:32.091Z,13.30
2023-02-22T11:51:26.705Z,11.70
2023-02-22T11:53:53.117Z,11.68
2023-02-22T11:56:37.830Z,11.15
2023-02-22T11:59:36.826Z,9.65
2023-02-22T12:02:21.913Z,11.60
2023-02-22T12:05:24.435Z,13.50
2023-02-22T12:08:20.560Z,11.75
2023-02-22T12:10:56.349Z,14.55
2023-02-22T12:13:40.381Z,9.57
2023-02-22T12:16:18.869Z,10.05
2023-02-22T12:19:05.151Z,9.40
2023-02-22T12:21:34.433Z,10.70
2023-02-22T12:24:30.151Z,11.60
2023-02-22T12:27:27.221Z,12.90
2023-02-22T12:30:05.729Z,12.38
2023-02-22T12:32:52.679Z,15.13
2023-02-22T12:35:26.890Z,9.88
2023-02-22T12:38:12.302Z,10.88
2023-02-22T12:40:45.752Z,11.98
2023-02-22T12:43:22.583Z,10.50
2023-02-22T12:46:01.307Z,9.43
2023-02-22T12:48:38.002Z,13.52
2023-02-22T12:51:15.209Z,10.15
2023-02-22T12:53:49.831Z,9.60
2023-02-22T12:56:21.401Z,13.13
2023-02-22T12:59:04.417Z,12.90
2023-02-22T13:01:42.234Z,13.55
2023-02-22T13:04:20.146Z,12.73
2023-02-22T13:07:25.962Z,12.15
2023-02-22T13:10:28.758Z,15.10
2023-02-22T13:13:14.094Z,12.55
2023-02-22T13:15:43.513Z,12.68
2023-02-22T13:18:19.143Z,11.82
2023-02-22T13:21:38.239Z,11.25
2023-02-22T13:24:19.456Z,12.23
2023-02-22T13:27:10.201Z,12.95
2023-02-22T13:29:42.687Z,12.52
2023-02-22T13:32:46.960Z,11.75
2023-02-22T13:35:48.581Z,13.20
2023-02-22T13:38:54.228Z,13.35
2023-02-22T13:41:33.972Z,11.73
2023-02-22T13:44:09.725Z,13.48
2023-02-22T13:46:59.254Z,15.75
2023-02-22T13:49:29.052Z,14.43
2023-02-22T13:52:08.437Z,16.60
2023-02-22T13:54:42.667Z,11.52
2023-02-22T13:57:34.071Z,14.85
2023-02-22T14:00:15.540Z,14.15
2023-02-22T14:05:43.258Z,14.95
2023-02-22T14:08:22.497Z,14.75
2023-02-22T14:10:55.185Z,13.32
2023-02-22T14:13:28.502Z,14.60
2023-02-22T14:16:00.154Z,13.02
2023-02-22T14:18:33.904Z,14.52
2023-02-22T14:21:06.839Z,14.27
2023-02-22T14:23:42.465Z,14.77
2023-02-22T14:26:32.086Z,11.25
2023-02-22T14:29:18.945Z,13.77
2023-02-22T14:31:51.864Z,14.88
2023-02-22T14:34:41.713Z,15.75
2023-02-22T14:37:37.914Z,11.30
2023-02-22T14:40:25.856Z,15.93
2023-02-22T14:43:15.195Z,12.80
2023-02-22T14:45:53.453Z,14.68
2023-02-22T14:48:39.595Z,11.27
2023-02-22T14:51:29.176Z,14.18
2023-02-22T14:53:59.064Z,18.10
2023-02-22T14:56:30.387Z,11.55
2023-02-22T14:59:07.958Z,13.82
2023-02-22T15:01:50.832Z,12.70
2023-02-22T15:04:33.882Z,13.95
2023-02-22T15:07:08.280Z,13.88
2023-02-22T15:09:37.457Z,14.50
2023-02-22T15:12:04.230Z,12.65
2023-02-22T15:14:37.699Z,13.93
2023-02-22T15:17:12.392Z,15.18
2023-02-22T15:19:41.553Z,16.35
2023-02-22T15:22:20.754Z,14.85
2023-02-22T15:24:59.021Z,13.45
2023-02-22T15:27:26.190Z,13.32
2023-02-22T15:29:59.364Z,14.27
2023-02-22T15:32:39.265Z,11.75
2023-02-22T15:35:23.911Z,16.35
2023-02-22T15:38:21.624Z,14.60
2023-02-22T15:40:59.755Z,13.90
2023-02-22T15:43:29.954Z,13.02
2023-02-22T15:45:57.615Z,12.57
2023-02-22T15:48:26.285Z,13.93
2023-02-22T15:53:40.685Z,15.40
2023-02-22T15:56:24.728Z,13.23
2023-02-22T15:58:58.457Z,13.00
2023-02-22T16:01:26.290Z,14.30
2023-02-22T16:03:58.560Z,15.68
2023-02-22T16:06:30.630Z,14.65
2023-02-22T16:08:59.640Z,13.93
2023-02-22T16:11:31.517Z,14.63
2023-02-22T16:14:25.530Z,15.90
2023-02-22T16:17:13.307Z,13.73
2023-02-22T16:19:44.241Z,18.98
2023-02-22T16:22:26.844Z,15.73
2023-02-22T16:24:54.627Z,14.10
2023-02-22T16:27:24.255Z,18.40
2023-02-22T16:30:25.247Z,18.13
2023-02-22T16:32:57.005Z,16.13
2023-02-22T16:35:29.136Z,19.58
2023-02-22T16:38:07.780Z,16.23
2023-02-22T16:40:38.790Z,16.52
2023-02-22T16:43:12.330Z,18.73
2023-02-22T16:45:41.982Z,16.13
2023-02-22T16:48:18.148Z,15.35
2023-02-22T16:50:44.873Z,14.88
2023-02-22T16:53:11.902Z,17.42
2023-02-22T16:55:38.713Z,15.65
2023-02-22T16:58:06.316Z,15.48
2023-02-22T17:00:34.188Z,15.55
2023-02-22T17:03:06.115Z,15.48
2023-02-22T17:05:36.924Z,16.45
2023-02-22T17:08:04.690Z,19.15
2023-02-22T17:10:33.004Z,14.75
2023-02-22T17:13:07.179Z,15.50
2023-02-22T17:15:39.656Z,16.50
2023-02-22T17:18:14.321Z,17.23
2023-02-22T17:20:41.139Z,17.23
2023-02-22T17:23:10.011Z,15.93
2023-02-22T17:25:38.627Z,17.55
2023-02-22T17:28:07.337Z,19.35
2023-02-22T17:33:06.293Z,15.57
2023-02-22T17:35:37.091Z,20.88
2023-02-22T17:38:06.150Z,17.70
2023-02-22T17:40:34.510Z,18.13
2023-02-22T17:43:01.875Z,20.92
2023-02-22T17:45:29.283Z,17.42
2023-02-22T17:48:00.036Z,20.35
2023-02-22T17:50:27.377Z,23.02
2023-02-22T17:52:54.308Z,19.25
2023-02-22T17:55:22.206Z,17.77
2023-02-22T17:57:58.240Z,18.08
2023-02-22T18:00:33.280Z,19.23
2023-02-22T18:03:05.494Z,17.92
2023-02-22T18:05:33.552Z,19.02
2023-02-22T18:08:00.346Z,20.23
2023-02-22T18:10:26.992Z,18.20
2023-02-22T18:12:54.145Z,20.13
2023-02-22T18:15:21.149Z,18.88
2023-02-22T18:17:48.562Z,22.20
2023-02-22T18:20:20.429Z,22.98
2023-02-22T18:22:47.003Z,19.02
2023-02-22T18:25:16.175Z,19.75
2023-02-22T18:27:43.388Z,19.30
2023-02-22T18:30:12.313Z,18.77
2023-02-22T18:32:40.099Z,21.48
2023-02-22T18:35:06.913Z,22.00
2023-02-22T18:37:34.266Z,19.85
2023-02-22T18:40:00.905Z,20.77
2023-02-22T18:42:28.282Z,25.75
2023-02-22T18:45:00.826Z,20.63
2023-02-22T18:47:27.794Z,25.95
2023-02-22T18:49:54.678Z,25.73
2023-02-22T18:52:21.430Z,25.08
2023-02-22T18:54:49.527Z,23.65
2023-02-22T18:57:16.853Z,25.58
2023-02-22T18:59:43.657Z,27.80
2023-02-22T19:02:14.945Z,26.35
2023-02-22T19:04:44.167Z,26.13
2023-02-22T19:07:17.525Z,27.30
2023-02-22T19:09:44.944Z,29.15
2023-02-22T19:12:12.020Z,27.38
2023-02-22T19:14:38.603Z,25.48
2023-02-22T19:17:07.598Z,26.58
2023-02-22T19:19:34.365Z,29.30
2023-02-22T19:22:01.285Z,24.80
2023-02-22T19:24:28.736Z,25.85
2023-02-22T19:26:57.669Z,30.88
2023-02-22T19:29:24.278Z,27.00
2023-02-22T19:31:52.189Z,29.10
2023-02-22T19:34:22.092Z,27.55
2023-02-22T19:36:48.912Z,26.85
2023-02-22T19:39:18.850Z,10.68
2023-02-22T19:41:45.581Z,26.90
2023-02-22T19:44:12.283Z,23.25
2023-02-22T19:46:39.118Z,22.83
2023-02-22T19:49:06.279Z,21.63
2023-02-22T19:51:33.586Z,25.02
2023-02-22T19:54:03.117Z,26.38
2023-02-22T19:56:31.038Z,25.85
2023-02-22T19:58:59.966Z,23.92
2023-02-22T20:01:29.797Z,23.73
2023-02-22T20:03:59.655Z,22.90
2023-02-22T20:06:50.617Z,21.02
2023-02-22T20:09:39.569Z,22.33
2023-02-22T20:12:07.256Z,23.40
2023-02-22T20:14:34.156Z,23.52
2023-02-22T20:17:00.817Z,22.70
2023-02-22T20:19:28.374Z,21.70
2023-02-22T20:21:55.928Z,25.00
2023-02-22T20:24:23.892Z,23.38
2023-02-22T20:26:51.180Z,22.85
2023-02-22T20:29:17.781Z,22.80
2023-02-22T20:31:53.239Z,22.92
2023-02-22T20:34:19.797Z,22.90
2023-02-22T20:36:46.338Z,23.25
2023-02-22T20:39:13.995Z,22.17
2023-02-22T20:41:42.778Z,22.90
2023-02-22T20:44:13.584Z,21.35
2023-02-22T20:46:40.096Z,22.73
2023-02-22T20:49:08.346Z,22.58
2023-02-22T20:51:35.374Z,23.92
2023-02-22T20:54:02.084Z,23.98
2023-02-22T20:56:30.880Z,21.85
2023-02-22T20:59:00.112Z,22.10
2023-02-22T21:01:27.017Z,24.38
2023-02-22T21:03:53.749Z,26.15
2023-02-22T21:06:22.032Z,21.65
2023-02-22T21:08:53.675Z,23.27
2023-02-22T21:11:21.549Z,24.50
2023-02-22T21:13:48.535Z,22.02
2023-02-22T21:16:24.440Z,22.73
2023-02-22T21:18:53.016Z,20.02
2023-02-22T21:21:20.374Z,23.42
2023-02-22T21:23:53.073Z,27.95
2023-02-22T21:26:24.962Z,23.80
2023-02-22T21:28:52.360Z,27.30
2023-02-22T21:31:20.967Z,22.95
2023-02-22T21:33:55.678Z,24.63
2023-02-22T21:36:25.571Z,26.50
2023-02-22T21:39:09.566Z,21.63
2023-02-22T21:41:39.182Z,27.45
2023-02-22T21:44:07.077Z,26.58
2023-02-22T21:46:33.571Z,24.58
2023-02-22T21:49:00.465Z,24.80
2023-02-22T21:51:31.709Z,25.63
2023-02-22T21:54:04.691Z,25.02
2023-02-22T21:56:34.720Z,23.45
2023-02-22T21:59:13.578Z,24.63
2023-02-22T22:01:47.255Z,26.00
2023-02-22T22:04:18.974Z,24.90
2023-02-22T22:06:51.791Z,25.88
2023-02-22T22:09:19.554Z,24.10
2023-02-22T22:11:49.540Z,29.17
2023-02-22T22:14:21.888Z,24.20
2023-02-22T22:17:00.174Z,26.73
2023-02-22T22:19:29.247Z,26.27
2023-02-22T22:21:56.905Z,25.10
2023-02-22T22:24:23.939Z,26.92
2023-02-22T22:26:54.544Z,28.10
2023-02-22T22:29:23.633Z,24.02
2023-02-22T22:31:51.082Z,27.08
2023-02-22T22:34:18.163Z,27.92
2023-02-22T22:36:44.801Z,24.95
2023-02-22T22:39:13.994Z,27.45
2023-02-22T22:41:44.515Z,29.05
2023-02-22T22:44:12.678Z,29.45
2023-02-22T22:46:39.647Z,27.02
2023-02-22T22:49:10.752Z,27.25
2023-02-22T22:51:38.337Z,28.63
2023-02-22T22:54:09.289Z,25.20
2023-02-22T22:56:37.734Z,26.45
2023-02-22T22:59:07.602Z,26.65
2023-02-22T23:01:39.089Z,28.48
2023-02-22T23:04:09.420Z,27.35
2023-02-22T23:06:44.791Z,25.95
2023-02-22T23:09:11.622Z,29.27
2023-02-22T23:11:45.047Z,27.35
2023-02-22T23:14:19.519Z,29.25
2023-02-22T23:16:51.375Z,30.27
2023-02-22T23:19:19.282Z,30.70
2023-02-22T23:21:47.740Z,32.15
2023-02-22T23:24:16.324Z,31.50
2023-02-22T23:26:48.554Z,31.67
2023-02-22T23:29:17.738Z,34.05
2023-02-22T23:31:48.024Z,35.45
2023-02-22T23:34:17.276Z,30.50
2023-02-22T23:36:44.444Z,33.10
2023-02-22T23:39:12.704Z,31.02
2023-02-22T23:41:39.160Z,30.17
2023-02-22T23:44:08.492Z,31.52
2023-02-22T23:46:36.405Z,30.95
2023-02-22T23:49:05.594Z,29.90
2023-02-22T23:51:41.902Z,31.35
2023-02-22T23:54:12.573Z,29.70
2023-02-22T23:56:40.430Z,29.77
2023-02-22T23:59:12.495Z,29.88
